createdAt,value
2018-09-06T00:00:23.499Z,10.20
2018-09-06T00:01:23.641Z,9.90
2018-09-06T00:02:23.776Z,10.00
2018-09-06T00:03:23.934Z,10.00
2018-09-06T00:04:24.079Z,10.60
2018-09-06T00:05:24.233Z,10.20
2018-09-06T00:06:24.424Z,10.50
2018-09-06T00:07:24.570Z,10.20
2018-09-06T00:08:24.713Z,10.80
2018-09-06T00:09:24.852Z,10.10
2018-09-06T00:10:24.994Z,10.40
2018-09-06T00:11:25.131Z,10.10
2018-09-06T00:12:25.268Z,10.50
2018-09-06T00:13:25.406Z,10.20
2018-09-06T00:14:25.587Z,9.90
2018-09-06T00:15:25.683Z,10.50
2018-09-06T00:16:25.843Z,10.70
2018-09-06T00:17:25.970Z,10.30
2018-09-06T00:18:26.104Z,10.90
2018-09-06T00:19:26.253Z,10.60
2018-09-06T00:20:26.394Z,10.10
2018-09-06T00:21:26.527Z,11.00
2018-09-06T00:22:26.666Z,10.30
2018-09-06T00:23:26.808Z,10.70
2018-09-06T00:24:26.947Z,10.40
2018-09-06T00:25:27.091Z,10.20
2018-09-06T00:26:27.227Z,9.90
2018-09-06T00:27:27.368Z,11.40
2018-09-06T00:28:27.510Z,9.80
2018-09-06T00:29:27.660Z,10.70
2018-09-06T00:30:27.801Z,10.30
2018-09-06T00:31:27.943Z,11.20
2018-09-06T00:32:28.076Z,10.20
2018-09-06T00:33:28.212Z,10.10
2018-09-06T00:34:28.358Z,10.40
2018-09-06T00:35:28.494Z,9.50
2018-09-06T00:36:28.630Z,10.60
2018-09-06T00:37:28.772Z,10.20
2018-09-06T00:38:28.908Z,10.10
2018-09-06T00:39:29.081Z,10.00
2018-09-06T00:40:29.225Z,10.40
2018-09-06T00:41:29.354Z,10.60
2018-09-06T00:42:29.495Z,10.10
2018-09-06T00:43:29.656Z,10.40
2018-09-06T00:44:29.796Z,10.40
2018-09-06T00:45:29.939Z,9.80
2018-09-06T00:46:30.074Z,9.80
2018-09-06T00:47:30.251Z,9.80
2018-09-06T00:48:30.387Z,9.90
2018-09-06T00:49:30.532Z,10.10
2018-09-06T00:50:30.707Z,10.00
2018-09-06T00:51:30.818Z,9.80
2018-09-06T00:52:30.958Z,10.50
2018-09-06T00:53:31.179Z,10.10
2018-09-06T00:54:31.263Z,9.80
2018-09-06T00:55:31.395Z,9.80
2018-09-06T00:56:31.532Z,10.60
2018-09-06T00:57:31.695Z,10.70
2018-09-06T00:58:31.828Z,11.50
2018-09-06T00:59:31.969Z,11.30
2018-09-06T01:00:32.134Z,11.20
2018-09-06T01:01:32.271Z,11.40
2018-09-06T01:02:32.411Z,10.50
2018-09-06T01:03:32.554Z,10.00
2018-09-06T01:04:32.709Z,10.60
2018-09-06T01:05:32.832Z,10.90
2018-09-06T01:06:32.970Z,11.10
2018-09-06T01:07:33.110Z,10.30
2018-09-06T01:08:33.249Z,9.80
2018-09-06T01:09:33.393Z,9.50
2018-09-06T01:10:33.529Z,9.70
2018-09-06T01:11:33.673Z,10.10
2018-09-06T01:12:33.814Z,10.00
2018-09-06T01:13:33.950Z,10.50
2018-09-06T01:14:34.085Z,10.50
2018-09-06T01:15:34.232Z,11.10
2018-09-06T01:16:34.371Z,10.30
2018-09-06T01:17:34.510Z,10.50
2018-09-06T01:18:34.654Z,10.00
2018-09-06T01:19:34.791Z,10.00
2018-09-06T01:20:34.932Z,10.20
2018-09-06T01:21:35.066Z,10.40
2018-09-06T01:22:35.209Z,11.10
2018-09-06T01:23:35.350Z,10.00
2018-09-06T01:24:35.492Z,10.10
2018-09-06T01:25:35.634Z,10.30
2018-09-06T01:26:35.772Z,10.20
2018-09-06T01:27:36.764Z,9.80
2018-09-06T01:30:08.570Z,10.00
2018-09-06T01:31:08.705Z,10.50
2018-09-06T01:32:08.843Z,10.00
2018-09-06T01:33:08.982Z,10.80
2018-09-06T01:34:09.124Z,10.20
2018-09-06T01:35:09.254Z,10.40
2018-09-06T01:36:09.390Z,10.40
2018-09-06T01:37:09.533Z,10.80
2018-09-06T01:38:09.677Z,10.80
2018-09-06T01:39:09.812Z,10.40
2018-09-06T01:40:09.991Z,10.50
2018-09-06T01:41:10.090Z,10.80
2018-09-06T01:42:10.230Z,10.50
2018-09-06T01:43:10.392Z,10.50
2018-09-06T01:44:10.532Z,10.40
2018-09-06T01:45:10.676Z,10.20
2018-09-06T01:46:10.817Z,10.50
2018-09-06T01:47:10.951Z,10.80
2018-09-06T01:48:11.083Z,10.70
2018-09-06T01:49:11.217Z,11.50
2018-09-06T01:50:11.358Z,10.30
2018-09-06T01:51:11.495Z,10.00
2018-09-06T01:52:11.644Z,10.10
2018-09-06T01:53:11.785Z,10.50
2018-09-06T01:54:11.920Z,10.80
2018-09-06T01:55:12.070Z,10.10
2018-09-06T01:56:12.206Z,9.50
2018-09-06T01:57:12.343Z,10.70
2018-09-06T01:58:12.480Z,10.30
2018-09-06T01:59:12.616Z,10.40
2018-09-06T02:00:12.767Z,10.80
2018-09-06T02:01:12.896Z,10.50
2018-09-06T02:02:13.039Z,10.70
2018-09-06T02:03:13.179Z,11.40
2018-09-06T02:04:13.315Z,10.80
2018-09-06T02:05:13.457Z,11.50
2018-09-06T02:06:13.592Z,11.10
2018-09-06T02:07:13.740Z,10.80
2018-09-06T02:08:13.868Z,11.10
2018-09-06T02:09:14.013Z,10.90
2018-09-06T02:10:14.147Z,10.50
2018-09-06T02:11:14.283Z,11.00
2018-09-06T02:12:14.435Z,10.50
2018-09-06T02:13:14.576Z,11.40
2018-09-06T02:14:14.713Z,11.90
2018-09-06T02:15:14.849Z,15.40
2018-09-06T02:16:14.992Z,11.50
2018-09-06T02:17:15.132Z,10.80
2018-09-06T02:18:15.269Z,11.40
2018-09-06T02:19:15.412Z,10.90
2018-09-06T02:20:15.552Z,11.20
2018-09-06T02:21:15.685Z,10.80
2018-09-06T02:22:15.829Z,10.70
2018-09-06T02:23:15.969Z,11.00
2018-09-06T02:24:16.122Z,11.50
2018-09-06T02:25:16.245Z,12.10
2018-09-06T02:26:16.378Z,11.30
2018-09-06T02:27:16.515Z,11.20
2018-09-06T02:28:16.653Z,11.80
2018-09-06T02:29:16.813Z,11.50
2018-09-06T02:30:16.951Z,11.40
2018-09-06T02:31:17.127Z,11.40
2018-09-06T02:32:17.267Z,12.00
2018-09-06T02:33:17.422Z,12.00
2018-09-06T02:34:17.545Z,11.30
2018-09-06T02:35:17.693Z,11.40
2018-09-06T02:36:17.857Z,11.10
2018-09-06T02:37:17.996Z,11.80
2018-09-06T02:38:18.130Z,11.90
2018-09-06T02:39:18.284Z,12.40
2018-09-06T02:40:18.450Z,11.50
2018-09-06T02:41:18.588Z,11.80
2018-09-06T02:42:18.723Z,11.70
2018-09-06T02:43:18.862Z,11.50
2018-09-06T02:44:19.017Z,11.60
2018-09-06T02:45:19.157Z,11.20
2018-09-06T02:46:19.295Z,11.30
2018-09-06T02:47:19.462Z,11.90
2018-09-06T02:48:19.591Z,11.30
2018-09-06T02:49:19.733Z,11.20
2018-09-06T02:50:19.864Z,11.40
2018-09-06T02:51:20.104Z,11.40
2018-09-06T02:52:20.120Z,11.90
2018-09-06T02:53:20.258Z,11.10
2018-09-06T02:54:20.403Z,12.70
2018-09-06T02:55:20.543Z,12.70
2018-09-06T02:56:20.679Z,12.00
2018-09-06T02:57:20.814Z,13.70
2018-09-06T02:58:20.949Z,12.10
2018-09-06T02:59:21.184Z,12.70
2018-09-06T03:00:21.237Z,13.60
2018-09-06T03:01:21.373Z,14.30
2018-09-06T03:02:21.511Z,14.90
2018-09-06T03:03:21.652Z,13.80
2018-09-06T03:04:21.785Z,13.60
2018-09-06T03:05:21.922Z,13.20
2018-09-06T03:06:22.057Z,13.20
2018-09-06T03:07:22.198Z,12.60
2018-09-06T03:08:22.344Z,12.30
2018-09-06T03:09:22.480Z,13.10
2018-09-06T03:10:22.617Z,15.80
2018-09-06T03:11:22.763Z,16.90
2018-09-06T03:12:22.895Z,15.60
2018-09-06T03:13:23.042Z,13.90
2018-09-06T03:14:23.174Z,13.60
2018-09-06T03:15:23.332Z,14.50
2018-09-06T03:16:23.447Z,13.40
2018-09-06T03:17:23.583Z,13.40
2018-09-06T03:18:23.720Z,14.40
2018-09-06T03:19:23.848Z,14.40
2018-09-06T03:20:24.039Z,14.40
2018-09-06T03:21:24.175Z,13.40
2018-09-06T03:22:24.319Z,13.00
2018-09-06T03:23:24.459Z,12.80
2018-09-06T03:24:24.599Z,12.90
2018-09-06T03:25:24.735Z,12.90
2018-09-06T03:26:24.866Z,13.20
2018-09-06T03:27:25.009Z,12.50
2018-09-06T03:28:25.155Z,12.40
2018-09-06T03:29:25.298Z,11.60
2018-09-06T03:30:25.440Z,14.40
2018-09-06T03:31:25.573Z,13.10
2018-09-06T03:32:25.802Z,12.90
2018-09-06T03:33:25.816Z,12.30
2018-09-06T03:34:25.981Z,12.90
2018-09-06T03:35:26.619Z,12.10
2018-09-06T03:37:58.063Z,11.60
2018-09-06T03:38:58.251Z,12.00
2018-09-06T03:39:58.385Z,12.40
2018-09-06T03:40:58.525Z,12.00
2018-09-06T03:41:58.700Z,12.80
2018-09-06T03:42:58.840Z,12.20
2018-09-06T03:43:58.972Z,11.90
2018-09-06T03:44:59.112Z,11.30
2018-09-06T03:45:59.251Z,12.50
2018-09-06T03:46:59.407Z,13.10
2018-09-06T03:47:59.545Z,12.10
2018-09-06T03:48:59.683Z,12.90
2018-09-06T03:49:59.825Z,12.40
2018-09-06T03:50:59.975Z,11.90
2018-09-06T03:52:00.104Z,12.40
2018-09-06T03:53:00.246Z,11.70
2018-09-06T03:54:00.381Z,12.40
2018-09-06T03:55:00.551Z,12.60
2018-09-06T03:56:00.682Z,13.00
2018-09-06T03:57:00.825Z,12.60
2018-09-06T03:58:00.959Z,12.30
2018-09-06T03:59:01.119Z,12.10
2018-09-06T04:00:01.256Z,13.10
2018-09-06T04:01:01.396Z,12.70
2018-09-06T04:02:01.550Z,14.50
2018-09-06T04:03:01.684Z,16.10
2018-09-06T04:04:01.839Z,15.40
2018-09-06T04:05:01.975Z,14.50
2018-09-06T04:06:02.111Z,14.80
2018-09-06T04:07:02.325Z,13.40
2018-09-06T04:08:02.340Z,13.30
2018-09-06T04:09:02.488Z,12.60
2018-09-06T04:10:02.620Z,12.60
2018-09-06T04:11:02.761Z,12.70
2018-09-06T04:12:02.899Z,12.50
2018-09-06T04:13:03.040Z,13.10
2018-09-06T04:14:03.177Z,12.30
2018-09-06T04:15:03.319Z,12.90
2018-09-06T04:16:03.454Z,12.80
2018-09-06T04:17:03.599Z,12.20
2018-09-06T04:18:03.736Z,12.40
2018-09-06T04:19:03.869Z,13.20
2018-09-06T04:20:04.008Z,13.00
2018-09-06T04:21:04.147Z,13.50
2018-09-06T04:22:04.285Z,13.30
2018-09-06T04:23:04.426Z,12.90
2018-09-06T04:24:04.566Z,13.10
2018-09-06T04:25:04.701Z,12.80
2018-09-06T04:26:04.843Z,12.00
2018-09-06T04:27:04.984Z,12.90
2018-09-06T04:28:05.121Z,12.50
2018-09-06T04:29:05.253Z,12.70
2018-09-06T04:30:05.392Z,13.50
2018-09-06T04:31:05.535Z,12.50
2018-09-06T04:32:05.673Z,13.50
2018-09-06T04:33:05.855Z,12.90
2018-09-06T04:34:05.989Z,13.20
2018-09-06T04:35:06.128Z,13.10
2018-09-06T04:36:06.288Z,13.00
2018-09-06T04:37:06.437Z,13.50
2018-09-06T04:38:06.563Z,12.60
2018-09-06T04:39:06.703Z,12.40
2018-09-06T04:40:06.841Z,12.80
2018-09-06T04:41:06.979Z,12.80
2018-09-06T04:42:07.112Z,12.60
2018-09-06T04:43:07.256Z,13.20
2018-09-06T04:44:07.398Z,12.50
2018-09-06T04:45:07.563Z,12.70
2018-09-06T04:46:07.691Z,12.70
2018-09-06T04:47:07.827Z,13.00
2018-09-06T04:48:07.974Z,12.40
2018-09-06T04:49:08.119Z,12.70
2018-09-06T04:50:08.250Z,13.20
2018-09-06T04:51:08.393Z,12.50
2018-09-06T04:52:08.526Z,12.90
2018-09-06T04:53:08.687Z,13.10
2018-09-06T04:54:08.815Z,13.70
2018-09-06T04:55:08.966Z,12.40
2018-09-06T04:56:09.098Z,13.10
2018-09-06T04:57:09.243Z,12.50
2018-09-06T04:58:09.375Z,12.40
2018-09-06T04:59:09.518Z,12.60
2018-09-06T05:00:09.657Z,13.20
2018-09-06T05:01:09.821Z,12.60
2018-09-06T05:02:09.956Z,12.80
2018-09-06T05:03:10.090Z,13.80
2018-09-06T05:04:10.244Z,14.50
2018-09-06T05:05:10.379Z,13.80
2018-09-06T05:06:10.518Z,13.90
2018-09-06T05:07:10.654Z,13.40
2018-09-06T05:08:10.797Z,13.20
2018-09-06T05:09:10.951Z,13.30
2018-09-06T05:10:11.089Z,13.10
2018-09-06T05:11:11.226Z,13.10
2018-09-06T05:12:11.366Z,12.70
2018-09-06T05:13:11.499Z,12.90
2018-09-06T05:14:11.634Z,13.50
2018-09-06T05:15:11.775Z,13.10
2018-09-06T05:16:11.916Z,13.90
2018-09-06T05:17:12.062Z,13.20
2018-09-06T05:18:12.208Z,13.00
2018-09-06T05:19:12.357Z,13.40
2018-09-06T05:20:12.499Z,13.30
2018-09-06T05:21:12.641Z,13.80
2018-09-06T05:22:12.783Z,12.60
2018-09-06T05:23:12.924Z,12.90
2018-09-06T05:24:13.055Z,12.80
2018-09-06T05:25:13.205Z,12.60
2018-09-06T05:26:13.342Z,12.50
2018-09-06T05:27:13.476Z,12.80
2018-09-06T05:28:13.632Z,13.10
2018-09-06T05:29:13.772Z,13.10
2018-09-06T05:30:13.913Z,14.20
2018-09-06T05:31:14.045Z,13.60
2018-09-06T05:32:14.191Z,12.30
2018-09-06T05:33:14.338Z,12.30
2018-09-06T05:34:14.485Z,12.50
2018-09-06T05:35:14.723Z,12.30
2018-09-06T05:36:14.902Z,12.50
2018-09-06T05:37:14.953Z,12.00
2018-09-06T05:38:15.091Z,12.20
2018-09-06T05:39:15.231Z,12.40
2018-09-06T05:40:15.376Z,13.20
2018-09-06T05:41:15.521Z,12.30
2018-09-06T05:42:15.703Z,13.20
2018-09-06T05:43:15.788Z,13.00
2018-09-06T05:44:16.851Z,13.00
2018-09-06T05:45:16.011Z,12.70
2018-09-06T05:46:16.146Z,12.80
2018-09-06T05:47:16.296Z,12.90
2018-09-06T05:48:16.445Z,13.00
2018-09-06T05:49:16.587Z,12.80
2018-09-06T05:50:16.726Z,14.20
2018-09-06T05:51:16.871Z,13.90
2018-09-06T05:52:17.029Z,13.20
2018-09-06T05:53:17.177Z,12.50
2018-09-06T05:54:17.304Z,12.80
2018-09-06T05:55:17.442Z,14.70
2018-09-06T05:56:17.625Z,13.20
2018-09-06T05:57:17.743Z,13.00
2018-09-06T05:58:17.881Z,13.30
2018-09-06T05:59:18.018Z,13.80
2018-09-06T06:00:18.179Z,14.00
2018-09-06T06:01:18.313Z,14.20
2018-09-06T06:02:18.455Z,14.20
2018-09-06T06:03:18.588Z,13.00
2018-09-06T06:04:18.732Z,13.40
2018-09-06T06:05:18.888Z,14.30
2018-09-06T06:06:19.004Z,14.10
2018-09-06T06:07:19.145Z,14.10
2018-09-06T06:08:19.299Z,13.60
2018-09-06T06:09:19.439Z,14.20
2018-09-06T06:10:19.575Z,14.30
2018-09-06T06:11:19.717Z,14.90
2018-09-06T06:12:19.877Z,13.60
2018-09-06T06:13:19.995Z,13.40
2018-09-06T06:14:20.132Z,14.60
2018-09-06T06:15:20.275Z,13.90
2018-09-06T06:16:20.430Z,13.90
2018-09-06T06:17:20.564Z,14.50
2018-09-06T06:18:20.703Z,14.80
2018-09-06T06:19:20.840Z,14.60
2018-09-06T06:20:20.977Z,14.80
2018-09-06T06:21:21.114Z,14.60
2018-09-06T06:22:21.266Z,13.90
2018-09-06T06:23:21.395Z,14.10
2018-09-06T06:24:21.533Z,14.10
2018-09-06T06:25:21.681Z,15.20
2018-09-06T06:26:21.808Z,15.30
2018-09-06T06:27:21.947Z,14.80
2018-09-06T06:28:22.092Z,15.80
2018-09-06T06:29:22.243Z,16.40
2018-09-06T06:30:22.374Z,14.20
2018-09-06T06:31:22.523Z,14.30
2018-09-06T06:32:22.776Z,15.40
2018-09-06T06:33:22.808Z,15.20
2018-09-06T06:34:22.951Z,16.10
2018-09-06T06:35:23.097Z,15.10
2018-09-06T06:36:23.228Z,14.80
2018-09-06T06:37:23.366Z,15.20
2018-09-06T06:38:23.508Z,15.00
2018-09-06T06:39:23.645Z,14.90
2018-09-06T06:40:23.786Z,15.90
2018-09-06T06:41:23.930Z,15.50
2018-09-06T06:42:24.064Z,15.20
2018-09-06T06:43:24.200Z,15.50
2018-09-06T06:44:24.342Z,14.70
2018-09-06T06:45:24.476Z,15.10
2018-09-06T06:46:24.617Z,15.20
2018-09-06T06:47:24.755Z,15.90
2018-09-06T06:48:24.900Z,15.20
2018-09-06T06:49:25.082Z,15.20
2018-09-06T06:50:25.203Z,14.20
2018-09-06T06:51:25.351Z,14.50
2018-09-06T06:52:25.484Z,15.10
2018-09-06T06:53:25.624Z,15.30
2018-09-06T06:54:25.762Z,14.10
2018-09-06T06:55:25.920Z,14.30
2018-09-06T06:56:26.051Z,15.10
2018-09-06T06:57:26.189Z,14.20
2018-09-06T06:58:26.341Z,15.50
2018-09-06T06:59:26.489Z,14.40
2018-09-06T07:00:26.625Z,15.00
2018-09-06T07:01:26.762Z,15.20
2018-09-06T07:02:26.903Z,14.80
2018-09-06T07:03:27.098Z,16.90
2018-09-06T07:04:27.123Z,15.60
2018-09-06T07:05:27.251Z,15.70
2018-09-06T07:06:27.389Z,15.70
2018-09-06T07:07:27.550Z,15.80
2018-09-06T07:08:27.682Z,15.30
2018-09-06T07:09:27.821Z,16.50
2018-09-06T07:10:27.958Z,15.30
2018-09-06T07:11:28.092Z,14.80
2018-09-06T07:12:28.234Z,17.50
2018-09-06T07:13:28.381Z,15.20
2018-09-06T07:14:28.545Z,14.80
2018-09-06T07:15:28.667Z,14.50
2018-09-06T07:16:28.803Z,15.10
2018-09-06T07:17:28.941Z,15.20
2018-09-06T07:18:29.254Z,15.10
2018-09-06T07:19:29.235Z,15.50
2018-09-06T07:20:29.373Z,14.20
2018-09-06T07:21:29.520Z,15.00
2018-09-06T07:22:29.700Z,15.00
2018-09-06T07:23:29.835Z,14.90
2018-09-06T07:24:30.006Z,15.30
2018-09-06T07:25:30.139Z,15.30
2018-09-06T07:26:30.296Z,15.00
2018-09-06T07:27:30.435Z,14.80
2018-09-06T07:28:30.575Z,15.00
2018-09-06T07:29:30.720Z,14.70
2018-09-06T07:30:30.924Z,15.20
2018-09-06T07:31:31.009Z,15.40
2018-09-06T07:32:31.148Z,14.40
2018-09-06T07:33:31.291Z,14.40
2018-09-06T07:34:31.437Z,14.90
2018-09-06T07:35:31.572Z,15.00
2018-09-06T07:36:31.713Z,15.10
2018-09-06T07:37:31.854Z,16.00
2018-09-06T07:38:32.051Z,75.20
2018-09-06T07:39:32.132Z,26.10
2018-09-06T07:40:32.279Z,17.70
2018-09-06T07:41:32.483Z,34.20
2018-09-06T07:42:32.576Z,30.80
2018-09-06T07:43:32.714Z,38.30
2018-09-06T07:44:32.860Z,35.60
2018-09-06T07:45:32.993Z,20.10
2018-09-06T07:46:33.138Z,22.50
2018-09-06T07:47:33.273Z,31.50
2018-09-06T07:48:33.408Z,44.70
2018-09-06T07:49:33.552Z,30.80
2018-09-06T07:50:33.745Z,24.90
2018-09-06T07:51:33.899Z,30.90
2018-09-06T07:52:33.976Z,21.30
2018-09-06T07:53:34.115Z,20.70
2018-09-06T07:54:34.252Z,18.60
2018-09-06T07:55:34.398Z,34.90
2018-09-06T07:56:34.541Z,50.20
2018-09-06T07:57:34.685Z,53.20
2018-09-06T07:58:34.822Z,179.10
2018-09-06T07:59:34.960Z,270.00
2018-09-06T08:00:35.103Z,256.20
2018-09-06T08:01:35.287Z,254.20
2018-09-06T08:02:35.384Z,176.80
2018-09-06T08:03:35.523Z,149.30
2018-09-06T08:04:35.666Z,75.00
2018-09-06T08:05:35.803Z,39.20
2018-09-06T08:06:35.943Z,41.10
2018-09-06T08:07:36.087Z,15.20
2018-09-06T08:08:36.228Z,15.40
2018-09-06T08:09:36.367Z,22.10
2018-09-06T08:10:36.508Z,16.50
2018-09-06T08:11:36.649Z,14.10
2018-09-06T08:12:36.792Z,12.90
2018-09-06T08:13:36.940Z,14.00
2018-09-06T08:14:37.079Z,14.10
2018-09-06T08:15:37.218Z,98.90
2018-09-06T08:16:37.355Z,62.50
2018-09-06T08:17:37.495Z,33.90
2018-09-06T08:18:37.631Z,22.00
2018-09-06T08:19:37.770Z,22.80
2018-09-06T08:20:37.985Z,21.70
2018-09-06T08:21:37.999Z,20.60
2018-09-06T08:22:38.144Z,13.70
2018-09-06T08:23:38.282Z,15.70
2018-09-06T08:24:38.420Z,14.70
2018-09-06T08:25:38.559Z,14.00
2018-09-06T08:26:38.697Z,20.30
2018-09-06T08:27:38.833Z,15.60
2018-09-06T08:28:38.975Z,13.80
2018-09-06T08:29:39.123Z,13.50
2018-09-06T08:30:39.337Z,13.00
2018-09-06T08:31:39.410Z,12.60
2018-09-06T08:32:39.551Z,13.00
2018-09-06T08:33:39.684Z,13.30
2018-09-06T08:34:39.829Z,12.70
2018-09-06T08:35:39.987Z,13.40
2018-09-06T08:36:40.174Z,13.40
2018-09-06T08:37:40.268Z,16.00
2018-09-06T08:38:40.407Z,13.90
2018-09-06T08:39:40.578Z,13.40
2018-09-06T08:40:40.706Z,13.70
2018-09-06T08:41:40.854Z,13.10
2018-09-06T08:42:41.020Z,13.20
2018-09-06T08:43:41.157Z,13.80
2018-09-06T08:44:41.299Z,12.90
2018-09-06T08:45:41.463Z,14.40
2018-09-06T08:46:41.593Z,13.40
2018-09-06T08:47:41.797Z,13.70
2018-09-06T08:48:41.871Z,13.60
2018-09-06T08:49:42.033Z,14.60
2018-09-06T08:50:42.171Z,17.80
2018-09-06T08:51:42.319Z,20.90
2018-09-06T08:52:42.457Z,20.10
2018-09-06T08:53:42.622Z,18.40
2018-09-06T08:54:42.762Z,14.60
2018-09-06T08:55:42.910Z,14.50
2018-09-06T08:56:43.048Z,14.00
2018-09-06T08:57:43.226Z,14.70
2018-09-06T08:58:43.348Z,15.00
2018-09-06T08:59:43.492Z,16.80
2018-09-06T09:00:43.631Z,20.20
2018-09-06T09:01:43.804Z,20.80
2018-09-06T09:02:44.057Z,15.70
2018-09-06T09:03:44.084Z,17.00
2018-09-06T09:04:44.268Z,13.60
2018-09-06T09:05:44.383Z,14.00
2018-09-06T09:06:44.520Z,14.00
2018-09-06T09:07:44.657Z,33.60
2018-09-06T09:08:44.797Z,21.50
2018-09-06T09:09:44.974Z,17.60
2018-09-06T09:10:45.102Z,15.10
2018-09-06T09:11:45.244Z,15.10
2018-09-06T09:12:45.404Z,15.20
2018-09-06T09:13:45.549Z,14.90
2018-09-06T09:14:45.722Z,15.80
2018-09-06T09:15:45.848Z,16.30
2018-09-06T09:16:45.961Z,15.80
2018-09-06T09:17:46.114Z,21.50
2018-09-06T09:18:46.244Z,15.60
2018-09-06T09:19:46.418Z,15.90
2018-09-06T09:20:46.568Z,16.30
2018-09-06T09:21:46.740Z,15.90
2018-09-06T09:22:46.834Z,16.20
2018-09-06T09:23:46.988Z,16.20
2018-09-06T09:24:47.171Z,16.00
2018-09-06T09:25:47.273Z,17.40
2018-09-06T09:26:47.414Z,17.30
2018-09-06T09:27:47.560Z,26.60
2018-09-06T09:28:47.697Z,23.80
2018-09-06T09:29:47.836Z,23.30
2018-09-06T09:30:47.979Z,29.80
2018-09-06T09:31:48.122Z,24.00
2018-09-06T09:32:48.286Z,24.90
2018-09-06T09:33:48.423Z,17.60
2018-09-06T09:34:48.563Z,17.00
2018-09-06T09:35:48.753Z,17.50
2018-09-06T09:36:48.863Z,15.90
2018-09-06T09:37:49.025Z,15.70
2018-09-06T09:38:49.147Z,15.90
2018-09-06T09:39:49.327Z,15.60
2018-09-06T09:40:49.452Z,15.50
2018-09-06T09:41:49.588Z,28.70
2018-09-06T09:42:49.731Z,25.30
2018-09-06T09:43:49.886Z,18.10
2018-09-06T09:44:50.024Z,17.10
2018-09-06T09:45:50.170Z,15.00
2018-09-06T09:48:22.361Z,17.10
2018-09-06T09:49:22.513Z,15.60
2018-09-06T09:51:55.489Z,15.40
2018-09-06T09:52:55.503Z,15.10
2018-09-06T09:53:55.650Z,16.10
2018-09-06T09:54:55.785Z,15.10
2018-09-06T09:55:55.929Z,17.20
2018-09-06T09:56:56.080Z,15.60
2018-09-06T09:57:56.208Z,15.90
2018-09-06T09:58:56.378Z,15.90
2018-09-06T09:59:56.520Z,15.90
2018-09-06T10:00:56.675Z,16.20
2018-09-06T10:01:56.810Z,15.80
2018-09-06T10:02:56.955Z,16.10
2018-09-06T10:03:57.094Z,16.40
2018-09-06T10:04:57.240Z,16.00
2018-09-06T10:05:57.384Z,16.20
2018-09-06T10:06:57.528Z,15.50
2018-09-06T10:07:57.671Z,15.40
2018-09-06T10:08:57.816Z,15.50
2018-09-06T10:09:57.958Z,15.90
2018-09-06T10:10:58.111Z,15.80
2018-09-06T10:11:58.243Z,14.80
2018-09-06T10:12:58.388Z,15.40
2018-09-06T10:13:58.537Z,16.80
2018-09-06T10:14:58.690Z,15.40
2018-09-06T10:15:58.837Z,16.80
2018-09-06T10:16:58.974Z,15.70
2018-09-06T10:17:59.181Z,16.40
2018-09-06T10:18:59.258Z,16.00
2018-09-06T10:19:59.410Z,16.40
2018-09-06T10:20:59.552Z,15.40
2018-09-06T10:21:59.704Z,15.90
2018-09-06T10:22:59.842Z,15.50
2018-09-06T10:23:59.988Z,15.50
2018-09-06T10:25:00.142Z,15.80
2018-09-06T10:26:00.295Z,15.70
2018-09-06T10:27:00.436Z,15.30
2018-09-06T10:28:00.577Z,14.60
2018-09-06T10:29:00.718Z,15.10
2018-09-06T10:30:00.875Z,14.50
2018-09-06T10:31:01.010Z,15.50
2018-09-06T10:32:01.151Z,15.20
2018-09-06T10:33:01.300Z,15.70
2018-09-06T10:34:01.439Z,15.50
2018-09-06T10:35:01.593Z,16.40
2018-09-06T10:36:01.738Z,15.80
2018-09-06T10:37:01.888Z,17.30
2018-09-06T10:38:02.036Z,17.10
2018-09-06T10:39:02.187Z,15.60
2018-09-06T10:40:02.399Z,15.40
2018-09-06T10:41:02.483Z,15.60
2018-09-06T10:42:02.655Z,15.80
2018-09-06T10:43:02.791Z,15.70
2018-09-06T10:44:02.936Z,16.00
2018-09-06T10:45:03.085Z,16.10
2018-09-06T10:46:03.228Z,15.90
2018-09-06T10:47:03.379Z,16.10
2018-09-06T10:48:03.508Z,15.70
2018-09-06T10:49:03.651Z,14.80
2018-09-06T10:50:03.791Z,15.10
2018-09-06T10:51:03.984Z,15.60
2018-09-06T10:52:04.129Z,15.30
2018-09-06T10:53:04.322Z,15.10
2018-09-06T10:54:04.434Z,15.20
2018-09-06T10:55:04.577Z,14.30
2018-09-06T10:56:04.720Z,14.60
2018-09-06T10:57:04.874Z,15.20
2018-09-06T10:58:05.015Z,15.00
2018-09-06T10:59:05.160Z,14.20
2018-09-06T11:00:05.304Z,13.80
2018-09-06T11:01:05.446Z,15.00
2018-09-06T11:02:05.593Z,15.40
2018-09-06T11:03:05.735Z,15.00
2018-09-06T11:04:05.893Z,15.60
2018-09-06T11:05:06.038Z,14.80
2018-09-06T11:06:06.179Z,16.00
2018-09-06T11:07:06.331Z,24.20
2018-09-06T11:08:06.638Z,114.30
2018-09-06T11:09:06.641Z,113.60
2018-09-06T11:10:06.786Z,104.50
2018-09-06T11:11:06.928Z,39.30
2018-09-06T11:12:07.084Z,26.50
2018-09-06T11:13:07.223Z,19.50
2018-09-06T11:14:07.367Z,16.50
2018-09-06T11:15:07.589Z,15.10
2018-09-06T11:16:07.745Z,17.30
2018-09-06T11:17:07.833Z,16.40
2018-09-06T11:18:08.044Z,16.00
2018-09-06T11:19:08.121Z,15.10
2018-09-06T11:20:08.283Z,14.90
2018-09-06T11:21:08.510Z,14.50
2018-09-06T11:22:08.794Z,14.30
2018-09-06T11:23:08.729Z,13.80
2018-09-06T11:24:08.899Z,14.50
2018-09-06T11:25:09.042Z,14.30
2018-09-06T11:26:09.185Z,14.40
2018-09-06T11:27:09.328Z,14.90
2018-09-06T11:28:09.510Z,15.00
2018-09-06T11:29:09.656Z,14.20
2018-09-06T11:30:09.790Z,13.70
2018-09-06T11:31:09.931Z,14.00
2018-09-06T11:32:10.127Z,14.50
2018-09-06T11:33:10.288Z,14.70
2018-09-06T11:34:10.388Z,14.30
2018-09-06T11:35:10.556Z,13.70
2018-09-06T11:36:10.697Z,14.30
2018-09-06T11:37:10.841Z,15.00
2018-09-06T11:38:10.985Z,14.30
2018-09-06T11:39:11.148Z,13.70
2018-09-06T11:40:11.383Z,13.50
2018-09-06T11:41:11.446Z,14.50
2018-09-06T11:42:11.592Z,14.30
2018-09-06T11:43:11.767Z,15.40
2018-09-06T11:44:11.907Z,14.90
2018-09-06T11:45:12.057Z,14.50
2018-09-06T11:46:12.203Z,14.50
2018-09-06T11:47:12.504Z,15.80
2018-09-06T11:48:12.456Z,14.30
2018-09-06T11:49:12.604Z,13.70
2018-09-06T11:50:12.743Z,13.80
2018-09-06T11:51:12.912Z,13.80
2018-09-06T11:52:13.099Z,14.20
2018-09-06T11:53:13.199Z,14.50
2018-09-06T11:54:13.341Z,12.80
2018-09-06T11:55:13.496Z,11.50
2018-09-06T11:56:13.647Z,10.90
2018-09-06T11:57:13.789Z,11.00
2018-09-06T11:58:13.936Z,11.30
2018-09-06T11:59:14.114Z,11.80
2018-09-06T12:00:14.242Z,19.30
2018-09-06T12:01:14.382Z,16.80
2018-09-06T12:02:14.617Z,13.30
2018-09-06T12:03:14.673Z,12.40
2018-09-06T12:04:14.819Z,17.00
2018-09-06T12:05:14.979Z,14.30
2018-09-06T12:06:15.148Z,15.30
2018-09-06T12:07:15.265Z,21.40
2018-09-06T12:08:15.417Z,13.10
2018-09-06T12:09:15.552Z,14.10
2018-09-06T12:10:15.693Z,14.90
2018-09-06T12:11:15.836Z,16.00
2018-09-06T12:12:15.985Z,16.50
2018-09-06T12:13:16.127Z,19.30
2018-09-06T12:14:16.274Z,15.10
2018-09-06T12:15:16.415Z,15.10
2018-09-06T12:16:16.558Z,14.70
2018-09-06T12:17:16.694Z,14.40
2018-09-06T12:18:16.845Z,15.50
2018-09-06T12:19:16.992Z,14.50
2018-09-06T12:20:17.126Z,12.60
2018-09-06T12:21:17.276Z,15.20
2018-09-06T12:22:17.425Z,13.80
2018-09-06T12:23:17.580Z,15.10
2018-09-06T12:24:17.722Z,17.70
2018-09-06T12:25:17.894Z,18.80
2018-09-06T12:26:18.003Z,18.20
2018-09-06T12:27:18.153Z,18.60
2018-09-06T12:28:18.293Z,17.70
2018-09-06T12:29:18.431Z,15.10
2018-09-06T12:30:18.569Z,16.70
2018-09-06T12:31:18.715Z,20.70
2018-09-06T12:32:18.892Z,19.80
2018-09-06T12:33:19.012Z,22.80
2018-09-06T12:34:19.132Z,23.40
2018-09-06T12:35:19.276Z,20.00
2018-09-06T12:36:19.418Z,21.10
2018-09-06T12:37:19.558Z,25.10
2018-09-06T12:38:19.703Z,20.30
2018-09-06T12:39:19.834Z,21.80
2018-09-06T12:40:20.000Z,26.70
2018-09-06T12:41:20.140Z,17.70
2018-09-06T12:42:20.297Z,21.30
2018-09-06T12:43:20.438Z,17.30
2018-09-06T12:44:20.588Z,16.70
2018-09-06T12:45:20.737Z,14.50
2018-09-06T12:46:20.887Z,14.00
2018-09-06T12:47:21.022Z,14.60
2018-09-06T12:48:21.185Z,15.80
2018-09-06T12:49:21.316Z,14.60
2018-09-06T12:50:21.459Z,13.40
2018-09-06T12:51:21.606Z,12.80
2018-09-06T12:52:21.768Z,13.40
2018-09-06T12:53:21.907Z,13.10
2018-09-06T12:54:22.111Z,13.30
2018-09-06T12:55:22.123Z,16.80
2018-09-06T12:56:22.273Z,13.50
2018-09-06T12:57:22.417Z,14.40
2018-09-06T12:58:22.560Z,13.50
2018-09-06T12:59:22.717Z,13.90
2018-09-06T13:00:22.877Z,14.10